createdAt,value
2019-06-20T00:01:03.958Z,49.01
2019-06-20T00:03:34.594Z,49.13
2019-06-20T00:06:04.132Z,49.03
2019-06-20T00:08:33.699Z,49.25
2019-06-20T00:11:03.298Z,49.04
2019-06-20T00:13:32.840Z,48.88
2019-06-20T00:16:02.819Z,49.22
2019-06-20T00:18:32.374Z,49.28
2019-06-20T00:21:01.936Z,49.28
2019-06-20T00:23:31.891Z,49.30
2019-06-20T00:26:01.475Z,49.30
2019-06-20T00:28:31.379Z,49.26
2019-06-20T00:31:00.956Z,49.21
2019-06-20T00:33:30.580Z,48.92
2019-06-20T00:36:00.133Z,49.23
2019-06-20T00:38:29.633Z,49.26
2019-06-20T00:40:59.181Z,49.36
2019-06-20T00:43:29.160Z,49.21
2019-06-20T00:45:58.787Z,49.22
2019-06-20T00:48:28.426Z,49.27
2019-06-20T00:50:58.022Z,49.36
2019-06-20T00:53:27.561Z,49.38
2019-06-20T00:55:57.541Z,49.36
2019-06-20T00:58:27.139Z,49.36
2019-06-20T01:00:56.694Z,49.30
2019-06-20T01:03:26.246Z,49.35
2019-06-20T01:05:55.820Z,49.36
2019-06-20T01:08:25.417Z,49.36
2019-06-20T01:10:55.107Z,49.22
2019-06-20T01:13:33.619Z,49.37
2019-06-20T01:15:56.178Z,49.38
2019-06-20T01:18:25.740Z,49.44
2019-06-20T01:20:55.452Z,49.55
2019-06-20T01:23:25.036Z,49.43
2019-06-20T01:25:54.599Z,49.32
2019-06-20T01:28:24.167Z,49.56
2019-06-20T01:30:53.746Z,49.58
2019-06-20T01:33:23.280Z,49.54
2019-06-20T01:35:52.850Z,49.57
2019-06-20T01:38:22.387Z,49.60
2019-06-20T01:40:51.995Z,49.55
2019-06-20T01:43:21.564Z,49.58
2019-06-20T01:45:51.113Z,49.57
2019-06-20T01:48:20.668Z,49.50
2019-06-20T01:50:50.307Z,49.53
2019-06-20T01:53:19.880Z,49.54
2019-06-20T01:55:49.410Z,49.67
2019-06-20T01:58:19.333Z,49.56
2019-06-20T02:00:49.343Z,49.55
2019-06-20T02:03:19.294Z,49.58
2019-06-20T02:05:49.330Z,49.53
2019-06-20T02:08:19.174Z,49.59
2019-06-20T02:10:48.805Z,49.73
2019-06-20T02:13:18.408Z,49.51
2019-06-20T02:15:48.292Z,49.71
2019-06-20T02:18:17.845Z,49.66
2019-06-20T02:20:49.302Z,49.70
2019-06-20T02:23:18.904Z,49.75
2019-06-20T02:25:48.444Z,49.63
2019-06-20T02:28:18.011Z,49.65
2019-06-20T02:30:47.625Z,49.70
2019-06-20T02:33:17.522Z,49.79
2019-06-20T02:35:47.423Z,49.77
2019-06-20T02:38:16.974Z,49.79
2019-06-20T02:40:46.522Z,49.80
2019-06-20T02:43:16.087Z,49.77
2019-06-20T02:45:45.641Z,49.74
2019-06-20T02:48:15.222Z,49.79
2019-06-20T02:50:44.786Z,49.70
2019-06-20T02:53:14.331Z,49.75
2019-06-20T02:55:44.068Z,49.74
2019-06-20T02:58:13.650Z,49.75
2019-06-20T03:01:05.501Z,49.68
2019-06-20T03:03:35.159Z,49.70
2019-06-20T03:06:04.804Z,49.69
2019-06-20T03:08:34.369Z,49.62
2019-06-20T03:11:03.925Z,49.74
2019-06-20T03:13:33.493Z,49.78
2019-06-20T03:16:03.378Z,49.80
2019-06-20T03:18:32.934Z,49.87
2019-06-20T03:21:02.783Z,49.78
2019-06-20T03:23:32.329Z,49.84
2019-06-20T03:26:01.952Z,49.90
2019-06-20T03:28:31.812Z,49.99
2019-06-20T03:31:01.374Z,50.04
2019-06-20T03:33:31.254Z,50.00
2019-06-20T03:36:00.803Z,49.97
2019-06-20T03:38:30.648Z,49.94
2019-06-20T03:41:00.193Z,49.92
2019-06-20T03:43:29.746Z,49.86
2019-06-20T03:46:00.001Z,49.95
2019-06-20T03:48:29.555Z,49.91
2019-06-20T03:50:59.135Z,49.96
2019-06-20T03:53:28.802Z,49.96
2019-06-20T03:55:58.348Z,49.94
2019-06-20T03:58:28.254Z,49.97
2019-06-20T04:00:58.309Z,49.97
2019-06-20T04:03:27.983Z,49.82
2019-06-20T04:05:57.552Z,49.76
2019-06-20T04:08:27.131Z,49.93
2019-06-20T04:10:56.724Z,49.78
2019-06-20T04:13:26.335Z,49.97
2019-06-20T04:15:56.522Z,49.92
2019-06-20T04:18:26.754Z,49.92
2019-06-20T04:20:56.657Z,49.91
2019-06-20T04:23:26.177Z,49.89
2019-06-20T04:25:55.905Z,50.00
2019-06-20T04:28:25.447Z,50.01
2019-06-20T04:30:55.658Z,49.97
2019-06-20T04:33:25.210Z,50.08
2019-06-20T04:35:54.869Z,49.95
2019-06-20T04:38:24.449Z,50.01
2019-06-20T04:40:54.323Z,49.91
2019-06-20T04:43:24.003Z,49.96
2019-06-20T04:46:05.651Z,49.93
2019-06-20T04:48:35.367Z,49.94
2019-06-20T04:51:04.977Z,50.00
2019-06-20T04:53:34.787Z,49.97
2019-06-20T04:56:05.793Z,49.79
2019-06-20T04:58:35.548Z,49.91
2019-06-20T05:01:05.148Z,49.99
2019-06-20T05:03:34.666Z,49.83
2019-06-20T05:06:04.250Z,49.71
2019-06-20T05:08:33.813Z,49.86
2019-06-20T05:11:03.396Z,49.84
2019-06-20T05:13:32.951Z,49.65
2019-06-20T05:16:02.992Z,49.68
2019-06-20T05:18:32.541Z,49.42
2019-06-20T05:21:02.186Z,49.72
2019-06-20T05:23:31.741Z,49.62
2019-06-20T05:26:01.329Z,49.25
2019-06-20T05:28:30.890Z,49.63
2019-06-20T05:31:00.594Z,49.43
2019-06-20T05:33:30.223Z,49.83
2019-06-20T05:35:59.785Z,49.48
2019-06-20T05:38:29.419Z,49.49
2019-06-20T05:40:58.995Z,49.57
2019-06-20T05:43:28.627Z,49.32
2019-06-20T05:46:08.906Z,49.62
2019-06-20T05:48:29.486Z,49.67
2019-06-20T05:50:59.158Z,49.78
2019-06-20T05:53:28.929Z,49.85
2019-06-20T05:55:58.493Z,49.89
2019-06-20T05:58:28.483Z,49.97
2019-06-20T06:00:58.358Z,49.32
2019-06-20T06:03:27.914Z,49.46
2019-06-20T06:05:57.460Z,49.09
2019-06-20T06:08:27.036Z,49.21
2019-06-20T06:10:56.961Z,49.39
2019-06-20T06:13:26.530Z,49.65
2019-06-20T06:15:56.126Z,49.77
2019-06-20T06:18:25.694Z,49.28
2019-06-20T06:20:55.370Z,49.70
2019-06-20T06:23:25.289Z,49.75
2019-06-20T06:25:54.833Z,49.11
2019-06-20T06:28:24.384Z,49.16
2019-06-20T06:30:53.976Z,49.27
2019-06-20T06:33:23.573Z,49.41
2019-06-20T06:35:53.181Z,49.09
2019-06-20T06:38:22.769Z,49.31
2019-06-20T06:40:52.389Z,49.39
2019-06-20T06:43:22.095Z,48.81
2019-06-20T06:45:51.691Z,49.22
2019-06-20T06:48:21.642Z,48.83
2019-06-20T06:50:51.568Z,48.80
2019-06-20T06:53:21.127Z,48.47
2019-06-20T06:55:50.708Z,48.93
2019-06-20T06:58:20.612Z,49.26
2019-06-20T07:00:50.757Z,49.35
2019-06-20T07:03:20.360Z,48.75
2019-06-20T07:05:50.246Z,49.11
2019-06-20T07:08:19.832Z,48.96
2019-06-20T07:10:49.415Z,48.79
2019-06-20T07:13:19.308Z,48.58
2019-06-20T07:15:49.620Z,48.44
2019-06-20T07:18:19.190Z,48.42
2019-06-20T07:20:48.750Z,48.94
2019-06-20T07:23:18.342Z,48.67
2019-06-20T07:25:47.914Z,48.73
2019-06-20T07:28:17.501Z,48.79
2019-06-20T07:30:47.106Z,48.67
2019-06-20T07:33:17.052Z,49.33
2019-06-20T07:35:46.639Z,49.56
2019-06-20T07:38:16.344Z,49.65
2019-06-20T07:40:45.975Z,49.61
2019-06-20T07:43:15.526Z,49.31
2019-06-20T07:46:01.165Z,49.77
2019-06-20T07:48:18.018Z,49.83
2019-06-20T07:50:47.634Z,49.84
2019-06-20T07:53:17.215Z,48.94
2019-06-20T07:55:46.871Z,49.59
2019-06-20T07:58:16.440Z,49.44
2019-06-20T08:00:46.017Z,49.46
2019-06-20T08:03:15.672Z,49.24
2019-06-20T08:05:45.255Z,49.11
2019-06-20T08:08:15.153Z,49.05
2019-06-20T08:10:44.766Z,48.97
2019-06-20T08:13:14.378Z,47.74
2019-06-20T08:15:43.966Z,48.43
2019-06-20T08:18:13.796Z,48.31
2019-06-20T08:20:43.730Z,47.73
2019-06-20T08:23:13.307Z,48.03
2019-06-20T08:25:42.895Z,47.31
2019-06-20T08:28:12.456Z,47.61
2019-06-20T08:30:42.025Z,47.01
2019-06-20T08:33:12.379Z,46.83
2019-06-20T08:35:42.050Z,46.90
2019-06-20T08:38:11.613Z,47.27
2019-06-20T08:40:41.195Z,47.09
2019-06-20T08:43:10.806Z,47.04
2019-06-20T08:45:42.143Z,47.05
2019-06-20T08:48:11.703Z,47.01
2019-06-20T08:50:41.412Z,46.96
2019-06-20T08:53:11.598Z,46.46
2019-06-20T08:55:41.185Z,46.54
2019-06-20T08:58:11.083Z,46.22
2019-06-20T09:00:41.738Z,45.84
2019-06-20T09:03:11.401Z,45.84
2019-06-20T09:05:40.974Z,45.83
2019-06-20T09:08:11.733Z,46.19
2019-06-20T09:10:41.784Z,46.16
2019-06-20T09:13:12.587Z,46.04
2019-06-20T09:15:42.304Z,45.86
2019-06-20T09:18:11.853Z,46.30
2019-06-20T09:20:41.449Z,45.90
2019-06-20T09:23:11.467Z,45.61
2019-06-20T09:25:41.175Z,46.02
2019-06-20T09:28:10.713Z,45.82
2019-06-20T09:30:59.217Z,46.00
2019-06-20T09:33:28.914Z,46.14
2019-06-20T09:35:59.566Z,46.04
2019-06-20T09:38:29.216Z,46.01
2019-06-20T09:40:59.288Z,46.19
2019-06-20T09:43:28.862Z,46.11
2019-06-20T09:45:58.477Z,45.88
2019-06-20T09:48:27.986Z,46.12
2019-06-20T09:50:58.631Z,46.10
2019-06-20T09:53:28.587Z,46.09
2019-06-20T09:55:58.233Z,46.24
2019-06-20T09:58:27.855Z,46.00
2019-06-20T10:00:57.672Z,46.09
2019-06-20T10:03:27.618Z,46.16
2019-06-20T10:05:57.228Z,46.23
2019-06-20T10:08:26.846Z,46.14
2019-06-20T10:10:56.433Z,46.21
2019-06-20T10:13:25.994Z,46.14
2019-06-20T10:15:55.772Z,46.09
2019-06-20T10:18:25.336Z,46.15
2019-06-20T10:20:55.278Z,46.31
2019-06-20T10:23:24.826Z,46.13
2019-06-20T10:25:54.400Z,46.52
2019-06-20T10:28:23.963Z,46.28
2019-06-20T10:30:53.566Z,46.37
2019-06-20T10:33:23.123Z,46.19
2019-06-20T10:35:53.054Z,46.40
2019-06-20T10:38:22.619Z,46.32
2019-06-20T10:40:52.175Z,46.49
2019-06-20T10:43:21.778Z,46.39
2019-06-20T10:45:52.380Z,46.17
2019-06-20T10:48:22.545Z,46.01
2019-06-20T10:50:52.125Z,46.03
2019-06-20T10:53:21.719Z,46.52
2019-06-20T10:55:51.279Z,46.50
2019-06-20T10:58:20.859Z,46.27
2019-06-20T11:00:50.505Z,46.13
2019-06-20T11:03:20.132Z,46.23
2019-06-20T11:05:49.903Z,45.95
2019-06-20T11:08:19.642Z,46.30
2019-06-20T11:10:49.474Z,46.34
2019-06-20T11:13:19.032Z,46.34
2019-06-20T11:15:48.598Z,45.91
2019-06-20T11:18:18.172Z,45.82
2019-06-20T11:20:48.754Z,45.35
2019-06-20T11:23:18.587Z,45.44
2019-06-20T11:25:48.434Z,45.44
2019-06-20T11:28:18.350Z,45.82
2019-06-20T11:30:58.179Z,45.01
2019-06-20T11:33:19.239Z,44.99
2019-06-20T11:35:48.833Z,45.59
2019-06-20T11:38:18.408Z,45.29
2019-06-20T11:40:48.211Z,45.85
2019-06-20T11:43:18.212Z,45.62
2019-06-20T11:45:47.862Z,44.68
2019-06-20T11:48:17.829Z,44.71
2019-06-20T11:50:47.386Z,45.00
2019-06-20T11:53:16.971Z,45.26
2019-06-20T11:55:46.553Z,45.56
2019-06-20T11:58:16.115Z,45.73
2019-06-20T12:00:58.621Z,46.52
2019-06-20T12:03:17.066Z,46.21
2019-06-20T12:05:47.306Z,45.30
2019-06-20T12:08:16.975Z,45.25
2019-06-20T12:10:47.298Z,45.48
2019-06-20T12:13:16.909Z,46.08
2019-06-20T12:15:46.771Z,45.07
2019-06-20T12:18:16.316Z,44.85
2019-06-20T12:20:46.787Z,44.62
2019-06-20T12:23:16.507Z,45.35
2019-06-20T12:25:46.544Z,45.04
2019-06-20T12:28:16.177Z,44.04
2019-06-20T12:30:45.788Z,44.58
2019-06-20T12:33:15.326Z,44.24
2019-06-20T12:35:44.900Z,44.47
2019-06-20T12:38:15.323Z,44.47
2019-06-20T12:40:46.148Z,43.85
2019-06-20T12:43:16.711Z,44.14
2019-06-20T12:45:47.406Z,44.07
2019-06-20T12:48:17.037Z,43.51
2019-06-20T12:50:47.633Z,43.96
2019-06-20T12:53:17.236Z,43.00
2019-06-20T12:55:47.533Z,43.51
2019-06-20T12:58:17.588Z,43.71
2019-06-20T13:00:47.267Z,43.93
2019-06-20T13:03:16.849Z,43.79
2019-06-20T13:05:47.173Z,43.99
2019-06-20T13:08:17.088Z,43.12
2019-06-20T13:10:48.235Z,43.14
2019-06-20T13:13:17.861Z,43.73
2019-06-20T13:15:47.376Z,43.73
2019-06-20T13:18:16.935Z,43.43
2019-06-20T13:20:46.844Z,42.65
2019-06-20T13:23:16.395Z,42.87
2019-06-20T13:25:46.777Z,42.29
2019-06-20T13:28:16.406Z,41.66
2019-06-20T13:30:49.843Z,41.78
2019-06-20T13:33:18.018Z,42.73
2019-06-20T13:35:48.746Z,42.75
2019-06-20T13:38:18.820Z,42.28
2019-06-20T13:40:49.373Z,42.76
2019-06-20T13:43:19.335Z,43.51
2019-06-20T13:45:49.880Z,43.61
2019-06-20T13:48:19.640Z,43.45
2019-06-20T13:50:49.679Z,43.97
2019-06-20T13:53:19.470Z,42.57
2019-06-20T13:55:50.294Z,42.09
2019-06-20T13:58:20.008Z,41.99
2019-06-20T14:00:50.968Z,42.36
2019-06-20T14:03:20.838Z,42.13
2019-06-20T14:05:51.713Z,43.12
2019-06-20T14:08:23.684Z,42.13
2019-06-20T14:10:54.455Z,43.12
2019-06-20T14:13:24.143Z,42.95
2019-06-20T14:15:53.789Z,43.32
2019-06-20T14:18:23.361Z,43.23
2019-06-20T14:20:52.919Z,41.72
2019-06-20T14:23:22.861Z,42.17
2019-06-20T14:25:53.917Z,42.81
2019-06-20T14:28:23.582Z,43.07
2019-06-20T14:30:53.295Z,43.02
2019-06-20T14:33:23.221Z,43.12
2019-06-20T14:35:53.083Z,43.27
2019-06-20T14:38:22.645Z,43.60
2019-06-20T14:40:52.531Z,42.80
2019-06-20T14:43:22.428Z,42.76
2019-06-20T14:45:51.994Z,43.16
2019-06-20T14:48:22.711Z,43.18
2019-06-20T14:50:53.423Z,43.54
2019-06-20T14:53:23.097Z,43.16
2019-06-20T14:55:53.906Z,43.26
2019-06-20T14:58:23.966Z,43.31
2019-06-20T15:00:54.189Z,43.48
2019-06-20T15:03:24.239Z,43.82
2019-06-20T15:05:54.672Z,43.97
2019-06-20T15:08:24.262Z,43.95
2019-06-20T15:10:54.108Z,43.92
2019-06-20T15:13:23.986Z,42.90
2019-06-20T15:15:53.885Z,43.38
2019-06-20T15:18:23.464Z,43.36
2019-06-20T15:20:56.134Z,42.47
2019-06-20T15:23:24.266Z,43.43
2019-06-20T15:25:54.214Z,43.79
2019-06-20T15:28:23.869Z,43.07
2019-06-20T15:30:54.871Z,43.29
2019-06-20T15:33:24.550Z,43.09
2019-06-20T15:35:55.208Z,43.34
2019-06-20T15:38:25.412Z,43.39
2019-06-20T15:40:55.433Z,43.30
2019-06-20T15:43:25.017Z,42.44
2019-06-20T15:45:55.798Z,43.02
2019-06-20T15:48:25.496Z,43.13
2019-06-20T15:50:55.110Z,43.34
2019-06-20T15:53:24.672Z,43.19
2019-06-20T15:55:54.579Z,43.14
2019-06-20T15:58:24.136Z,43.51
2019-06-20T16:00:53.708Z,43.22
2019-06-20T16:03:23.393Z,43.44
2019-06-20T16:05:53.061Z,43.10
2019-06-20T16:08:23.247Z,43.02
2019-06-20T16:10:52.806Z,43.54
2019-06-20T16:13:22.329Z,43.72
2019-06-20T16:15:52.572Z,43.61
2019-06-20T16:18:22.144Z,42.92
2019-06-20T16:20:51.728Z,42.10
2019-06-20T16:23:21.646Z,42.33
2019-06-20T16:25:53.901Z,42.58
2019-06-20T16:28:23.491Z,42.74
2019-06-20T16:31:07.926Z,42.59
2019-06-20T16:33:42.387Z,42.19
2019-06-20T16:36:13.272Z,42.41
2019-06-20T16:38:42.973Z,42.47
2019-06-20T16:41:12.546Z,41.01
2019-06-20T16:43:42.111Z,40.98
2019-06-20T16:46:12.706Z,41.48
2019-06-20T16:48:42.244Z,41.57
2019-06-20T16:51:12.412Z,41.51
2019-06-20T16:53:41.995Z,41.19
2019-06-20T16:56:11.588Z,41.31
2019-06-20T16:58:41.144Z,41.20
2019-06-20T17:01:11.070Z,41.05
2019-06-20T17:03:42.166Z,40.29
2019-06-20T17:06:11.899Z,40.50
2019-06-20T17:08:41.488Z,39.32
2019-06-20T17:11:11.070Z,39.23
2019-06-20T17:13:41.196Z,39.20
2019-06-20T17:16:10.757Z,39.64
2019-06-20T17:18:40.751Z,39.33
2019-06-20T17:21:10.677Z,39.09
2019-06-20T17:23:40.361Z,38.64
2019-06-20T17:26:09.980Z,38.09
2019-06-20T17:28:39.585Z,39.03
2019-06-20T17:31:09.458Z,38.70
2019-06-20T17:33:39.045Z,37.98
2019-06-20T17:36:17.690Z,38.58
2019-06-20T17:38:40.247Z,38.62
2019-06-20T17:41:09.960Z,38.58
2019-06-20T17:43:39.537Z,38.45
2019-06-20T17:46:09.492Z,39.31
2019-06-20T17:48:39.214Z,39.42
2019-06-20T17:51:08.795Z,39.10
2019-06-20T17:53:38.942Z,38.88
2019-06-20T17:56:08.579Z,38.59
2019-06-20T17:58:38.573Z,39.00
2019-06-20T18:01:08.563Z,38.70
2019-06-20T18:03:38.173Z,39.02
2019-06-20T18:06:07.766Z,39.22
2019-06-20T18:08:37.349Z,39.37
2019-06-20T18:11:06.921Z,39.23
2019-06-20T18:13:36.491Z,39.61
2019-06-20T18:16:06.092Z,39.67
2019-06-20T18:18:35.680Z,39.65
2019-06-20T18:21:05.293Z,39.54
2019-06-20T18:23:34.862Z,39.63
2019-06-20T18:26:04.494Z,39.84
2019-06-20T18:28:34.063Z,39.89
2019-06-20T18:31:03.651Z,39.25
2019-06-20T18:33:33.572Z,39.19
2019-06-20T18:36:03.602Z,39.13
2019-06-20T18:38:33.260Z,38.91
2019-06-20T18:41:02.874Z,39.30
2019-06-20T18:43:32.468Z,39.51
2019-06-20T18:46:02.111Z,39.69
2019-06-20T18:48:31.902Z,39.52
2019-06-20T18:51:01.852Z,38.97
2019-06-20T18:53:31.413Z,39.34
2019-06-20T18:56:01.344Z,39.19
2019-06-20T18:58:31.201Z,39.27
2019-06-20T19:01:00.812Z,38.98
2019-06-20T19:03:30.951Z,38.90
2019-06-20T19:06:00.515Z,38.90
2019-06-20T19:08:30.108Z,38.69
2019-06-20T19:10:59.724Z,38.88
2019-06-20T19:13:29.298Z,38.75
2019-06-20T19:15:58.875Z,38.86
2019-06-20T19:18:28.404Z,38.79
2019-06-20T19:20:58.310Z,38.60
2019-06-20T19:23:28.042Z,38.49
2019-06-20T19:25:57.614Z,38.44
2019-06-20T19:28:27.163Z,38.61
2019-06-20T19:30:56.750Z,38.65
2019-06-20T19:33:26.359Z,38.43
2019-06-20T19:35:55.978Z,38.62
2019-06-20T19:38:25.576Z,38.68
2019-06-20T19:40:55.206Z,38.58
2019-06-20T19:43:25.489Z,38.55
2019-06-20T19:45:55.056Z,38.63
2019-06-20T19:48:24.630Z,38.67
2019-06-20T19:50:54.188Z,38.86
2019-06-20T19:53:23.754Z,38.98
2019-06-20T19:55:53.644Z,39.25
2019-06-20T19:58:23.288Z,39.67
2019-06-20T20:00:52.904Z,39.78
2019-06-20T20:03:22.467Z,40.14
2019-06-20T20:05:52.175Z,40.32
2019-06-20T20:08:22.109Z,40.37
2019-06-20T20:10:51.817Z,40.44
2019-06-20T20:13:21.385Z,40.81
2019-06-20T20:15:50.942Z,40.48
2019-06-20T20:18:20.499Z,40.55
2019-06-20T20:20:50.437Z,40.94
2019-06-20T20:23:20.001Z,41.24
2019-06-20T20:25:49.603Z,41.33
2019-06-20T20:28:19.135Z,41.25
2019-06-20T20:30:48.808Z,41.33
2019-06-20T20:33:18.375Z,41.45
2019-06-20T20:35:47.933Z,41.36
2019-06-20T20:38:17.492Z,41.48
2019-06-20T20:40:47.688Z,41.98
2019-06-20T20:43:17.338Z,41.93
2019-06-20T20:45:46.981Z,42.21
2019-06-20T20:48:16.547Z,42.23
2019-06-20T20:50:46.112Z,41.54
2019-06-20T20:53:15.736Z,40.90
2019-06-20T20:55:45.296Z,40.58
2019-06-20T20:58:14.873Z,40.38
2019-06-20T21:00:55.377Z,40.24
2019-06-20T21:03:25.261Z,39.94
2019-06-20T21:05:54.887Z,39.99
2019-06-20T21:08:24.445Z,40.04
2019-06-20T21:10:54.022Z,39.99
2019-06-20T21:13:23.781Z,40.11
2019-06-20T21:15:53.347Z,40.03
2019-06-20T21:18:22.993Z,40.06
2019-06-20T21:20:52.652Z,39.93
2019-06-20T21:23:22.192Z,40.06
2019-06-20T21:25:52.007Z,40.00
2019-06-20T21:28:21.625Z,39.99
2019-06-20T21:30:51.553Z,40.01
2019-06-20T21:33:21.092Z,40.03
2019-06-20T21:36:06.969Z,39.93
2019-06-20T21:38:22.208Z,40.03
2019-06-20T21:40:51.863Z,39.93
2019-06-20T21:43:21.414Z,40.08
2019-06-20T21:45:51.236Z,39.90
2019-06-20T21:48:20.787Z,40.02
2019-06-20T21:50:50.353Z,40.13
2019-06-20T21:53:20.832Z,40.12
2019-06-20T21:55:50.670Z,39.83
2019-06-20T21:58:20.228Z,40.08
2019-06-20T22:00:53.572Z,40.06
2019-06-20T22:03:23.194Z,40.06
2019-06-20T22:05:53.090Z,40.14
2019-06-20T22:08:22.623Z,40.13
2019-06-20T22:10:52.290Z,40.23
2019-06-20T22:13:21.847Z,40.14
2019-06-20T22:15:51.817Z,40.26
2019-06-20T22:18:21.377Z,40.28
2019-06-20T22:20:51.026Z,40.34
2019-06-20T22:23:20.570Z,40.37
2019-06-20T22:25:50.155Z,40.32
2019-06-20T22:28:19.688Z,40.40
2019-06-20T22:30:51.880Z,40.50
2019-06-20T22:33:21.740Z,40.59
2019-06-20T22:35:51.289Z,40.57
2019-06-20T22:38:20.919Z,40.67
2019-06-20T22:40:50.509Z,40.73
2019-06-20T22:43:20.145Z,40.67
2019-06-20T22:45:49.689Z,40.85
2019-06-20T22:48:19.518Z,40.89
2019-06-20T22:50:49.140Z,40.94
2019-06-20T22:53:18.715Z,40.99
2019-06-20T22:55:48.684Z,41.03
2019-06-20T22:58:18.253Z,41.11
2019-06-20T23:00:47.843Z,41.12
2019-06-20T23:03:17.812Z,41.16
2019-06-20T23:05:47.363Z,41.21
2019-06-20T23:08:16.925Z,41.25
2019-06-20T23:10:46.598Z,41.15
2019-06-20T23:13:16.129Z,41.32
2019-06-20T23:15:45.700Z,41.24
2019-06-20T23:18:15.367Z,41.18
2019-06-20T23:21:03.590Z,41.40
2019-06-20T23:23:16.172Z,41.14
2019-06-20T23:25:48.121Z,41.45
2019-06-20T23:28:17.768Z,41.27
2019-06-20T23:30:47.345Z,41.46
2019-06-20T23:33:17.098Z,41.30
2019-06-20T23:35:46.988Z,41.38
2019-06-20T23:38:16.546Z,41.31
2019-06-20T23:40:46.116Z,41.60
2019-06-20T23:43:16.751Z,41.42
2019-06-20T23:45:46.338Z,41.29
2019-06-20T23:48:16.249Z,41.33
2019-06-20T23:50:45.882Z,41.61
2019-06-20T23:53:20.800Z,41.64
2019-06-20T23:55:50.351Z,41.72
2019-06-20T23:58:20.219Z,41.79
